Flight Track Log - Related Links

Times and Time Zones

All times are in EDT time to prevent confusion due to time zone crossing. See the N682RW flight status page for this flight to view local times or setup timezone preferences in your user account.

Time Position Orientation Groundspeed Altitude Reporting Facility
EDT Latitude Longitude Course Direction KTS MPH feet Rate Location/Type
19:43 41.8000 -87.7833 81° East 175 201 1,700  Level Chicago TRACON
19:44 41.8414 -87.7856 358° North 279 321 2,600 1,020 Climbing Chicago Center
19:45 41.8750 -87.7075 60° Northeast 280 322 3,400 629 Climbing Chicago Center
19:46 41.8322 -87.6244 125° Southeast 282 325 3,900 1,500 Climbing Chicago Center
19:47 41.8108 -87.5275 106° East 276 318 6,500 2,613 Climbing Chicago Center
19:48 41.8022 -87.4222 96° East 283 326 9,300 2,855 Climbing Chicago Center
19:49 41.9025 -86.7126 81° East  Level Estimated
19:49 41.7867 -87.2881 99° East 304 350 12,400  Level Chicago Center
19:50 41.7758 -87.1678 97° East 324 373 14,100 1,258 Climbing Chicago Center
19:51 41.7597 -87.0256 99° East 382 440 15,000 432 Climbing Chicago Center
19:52 41.7631 -86.8797 88° East 393 452 15,000 339 Level Chicago Center
19:53 41.7661 -86.7289 88° East 406 467 15,700 1,268 Climbing Chicago Center
19:54 41.7669 -86.5594 90° East 421 484 17,600 1,488 Climbing Chicago Center
19:55 41.7669 -86.3964 90° East 437 503 18,800 672 Climbing Chicago Center
19:56 41.7844 -86.2322 82° East 449 517 19,000 97 Climbing Chicago Center
19:57 41.8222 -86.0406 75° East 444 511 19,000  Level Chicago Center
19:58 41.8533 -85.8806 75° East 444 511 19,000  Level Chicago Center
19:59 41.8847 -85.7186 75° East 445 512 19,000  Level Chicago Center
20:00 41.9153 -85.5583 76° East 441 507 19,000  Level Chicago Center
20:01 41.9456 -85.3989 76° East 438 504 19,000  Level Chicago Center
20:02 41.9692 -85.2367 79° East 450 518 19,000  Level Chicago Center
20:03 41.9469 -85.0711 100° East 456 525 19,000  Level Chicago Center
20:05 41.9267 -84.9083 99° East 448 516 19,000  Level Chicago Center
20:06 41.9044 -84.7128 99° East 442 509 19,000  Level Chicago Center
20:07 41.8858 -84.5492 99° East 442 509 19,000 -624 Level Chicago Center
20:08 41.8667 -84.3875 99° East 440 506 17,700 -1,787 Descending Chicago Center
20:08 41.8539 -84.2939 100° East 426 490 16,200 -3,041 Descending Cleveland Center
20:09 41.8406 -84.1900 100° East 427 491 14,000 -2,520 Descending Cleveland Center
20:10 41.8306 -84.0417 95° East 415 478 12,000 -1,008 Descending Cleveland Center
20:11 41.8861 -83.9247 57° Northeast 365 420 12,000  Level Cleveland Center
20:12 41.9642 -83.8200 45° Northeast 365 420 12,000  Level Cleveland Center
20:13 42.0461 -83.7317 39° Northeast 365 420 12,000 50 Level Cleveland Center
20:14 42.1028 -83.6367 51° Northeast 345 397 12,100  Climbing Cleveland Center
20:15 42.1122 -83.5139 84° East 311 358 12,000 -50 Descending Cleveland Center
20:16 42.1211 -83.4106 83° East 311 358 12,000  Level Cleveland Center
20:16 42.1267 -83.3550 82° East 237 273 12,000  Level Cleveland Center
20:17 42.1342 -83.2992 80° East 280 322 12,000 -984 Level Cleveland Center
20:17 42.1597 -83.2781 31° Northeast 231 266 11,000 -1,837 Descending Cleveland Center
20:18 42.2153 -83.2186 38° Northeast 227 261 9,000 -1,581 Descending Cleveland Center
20:20 42.2664 -83.1703 35° Northeast 221 254 7,600 -1,122 Descending Cleveland Center
20:21 42.3156 -83.1217 36° Northeast 222 255 6,700 -787 Descending Cleveland Center
20:22 42.3664 -83.0817 30° Northeast 210 242 6,000 -780 Descending Cleveland Center
20:23 42.3922 -83.1331 304° West 182 209 5,100 -871 Descending Cleveland Center

Login

Don't have an account? Register now (free) for customized features, flight alerts, and more!